sensor_id;sensor_type;location;lat;lon;timestamp;pressure;altitude;pressure_sealevel;temperature;humidity
6194;BME280;3130;41.564;23.280;2023-12-28T00:00:11;100051.50;;;6.15;nan
6194;BME280;3130;41.564;23.280;2023-12-28T00:02:38;100078.19;;;6.34;nan
6194;BME280;3130;41.564;23.280;2023-12-28T00:05:07;100078.19;;;6.35;nan
6194;BME280;3130;41.564;23.280;2023-12-28T00:07:34;100084.88;;;6.39;nan
6194;BME280;3130;41.564;23.280;2023-12-28T00:10:04;100081.53;;;6.36;nan
6194;BME280;3130;41.564;23.280;2023-12-28T00:12:31;100013.03;;;5.92;nan
6194;BME280;3130;41.564;23.280;2023-12-28T00:14:59;100080.84;;;6.29;nan
6194;BME280;3130;41.564;23.280;2023-12-28T00:17:26;99982.31;;;5.63;nan
6194;BME280;3130;41.564;23.280;2023-12-28T00:19:53;100054.50;;;5.97;nan
6194;BME280;3130;41.564;23.280;2023-12-28T00:22:21;100068.81;;;6.01;nan
6194;BME280;3130;41.564;23.280;2023-12-28T00:24:48;100064.13;;;5.85;nan
6194;BME280;3130;41.564;23.280;2023-12-28T00:27:17;100007.34;;;5.45;nan
6194;BME280;3130;41.564;23.280;2023-12-28T00:29:44;100095.00;;;6.06;nan
6194;BME280;3130;41.564;23.280;2023-12-28T00:32:12;100100.84;;;6.09;nan
6194;BME280;3130;41.564;23.280;2023-12-28T00:34:39;100092.59;;;6.00;nan
6194;BME280;3130;41.564;23.280;2023-12-28T00:37:06;100047.38;;;5.73;nan
6194;BME280;3130;41.564;23.280;2023-12-28T00:39:33;100076.56;;;5.97;nan
6194;BME280;3130;41.564;23.280;2023-12-28T00:42:01;100099.84;;;6.16;nan
6194;BME280;3130;41.564;23.280;2023-12-28T00:44:30;100105.94;;;6.11;nan
6194;BME280;3130;41.564;23.280;2023-12-28T00:46:57;100111.28;;;6.00;nan
6194;BME280;3130;41.564;23.280;2023-12-28T00:49:24;100107.06;;;5.98;nan
6194;BME280;3130;41.564;23.280;2023-12-28T00:51:51;100120.66;;;5.98;nan
6194;BME280;3130;41.564;23.280;2023-12-28T00:54:19;100118.16;;;5.97;nan
6194;BME280;3130;41.564;23.280;2023-12-28T00:56:46;100119.59;;;6.07;nan
6194;BME280;3130;41.564;23.280;2023-12-28T00:59:14;100121.97;;;6.14;nan
6194;BME280;3130;41.564;23.280;2023-12-28T01:01:42;100110.47;;;5.98;nan
6194;BME280;3130;41.564;23.280;2023-12-28T01:04:10;100126.19;;;6.15;nan
6194;BME280;3130;41.564;23.280;2023-12-28T01:06:37;100060.97;;;5.72;nan
6194;BME280;3130;41.564;23.280;2023-12-28T01:09:06;100129.66;;;6.13;nan
6194;BME280;3130;41.564;23.280;2023-12-28T01:11:33;100040.97;;;5.57;nan
6194;BME280;3130;41.564;23.280;2023-12-28T01:14:01;100129.84;;;6.04;nan
6194;BME280;3130;41.564;23.280;2023-12-28T01:16:28;100111.53;;;5.89;nan
6194;BME280;3130;41.564;23.280;2023-12-28T01:18:57;100141.59;;;6.11;nan
6194;BME280;3130;41.564;23.280;2023-12-28T01:21:24;100139.91;;;6.08;nan
6194;BME280;3130;41.564;23.280;2023-12-28T01:23:52;100140.25;;;5.95;nan
6194;BME280;3130;41.564;23.280;2023-12-28T01:26:20;99982.00;;;5.01;nan
6194;BME280;3130;41.564;23.280;2023-12-28T01:28:47;100082.38;;;5.64;nan
6194;BME280;3130;41.564;23.280;2023-12-28T01:31:14;100132.47;;;6.01;nan
6194;BME280;3130;41.564;23.280;2023-12-28T01:33:42;100132.56;;;5.97;nan
6194;BME280;3130;41.564;23.280;2023-12-28T01:36:17;100126.72;;;5.93;nan
6194;BME280;3130;41.564;23.280;2023-12-28T01:38:45;100114.78;;;5.95;nan
6194;BME280;3130;41.564;23.280;2023-12-28T01:41:12;100120.69;;;5.97;nan
6194;BME280;3130;41.564;23.280;2023-12-28T01:43:41;100124.19;;;5.92;nan
6194;BME280;3130;41.564;23.280;2023-12-28T01:46:12;100073.13;;;5.60;nan
6194;BME280;3130;41.564;23.280;2023-12-28T01:48:41;100120.06;;;5.88;nan
6194;BME280;3130;41.564;23.280;2023-12-28T01:51:09;100122.63;;;5.86;nan
6194;BME280;3130;41.564;23.280;2023-12-28T01:53:38;100119.31;;;5.81;nan
6194;BME280;3130;41.564;23.280;2023-12-28T01:56:06;100100.94;;;5.69;nan
6194;BME280;3130;41.564;23.280;2023-12-28T01:58:35;100118.56;;;5.76;nan
6194;BME280;3130;41.564;23.280;2023-12-28T02:01:04;100094.41;;;5.57;nan
6194;BME280;3130;41.564;23.280;2023-12-28T02:03:31;100125.16;;;5.88;nan
6194;BME280;3130;41.564;23.280;2023-12-28T02:05:59;100126.19;;;5.79;nan
6194;BME280;3130;41.564;23.280;2023-12-28T02:08:27;100112.69;;;5.73;nan
6194;BME280;3130;41.564;23.280;2023-12-28T02:10:56;100115.34;;;5.70;nan
6194;BME280;3130;41.564;23.280;2023-12-28T02:13:23;100119.59;;;5.68;nan
6194;BME280;3130;41.564;23.280;2023-12-28T02:15:55;100118.91;;;5.61;nan
6194;BME280;3130;41.564;23.280;2023-12-28T02:18:30;100112.03;;;5.65;nan
6194;BME280;3130;41.564;23.280;2023-12-28T02:20:58;100113.66;;;5.67;nan
6194;BME280;3130;41.564;23.280;2023-12-28T02:23:25;100031.59;;;5.20;nan
6194;BME280;3130;41.564;23.280;2023-12-28T02:25:54;100111.88;;;5.72;nan
6194;BME280;3130;41.564;23.280;2023-12-28T02:28:21;100111.03;;;5.72;nan
6194;BME280;3130;41.564;23.280;2023-12-28T02:30:49;100112.63;;;5.76;nan
6194;BME280;3130;41.564;23.280;2023-12-28T02:33:21;100027.25;;;5.25;nan
6194;BME280;3130;41.564;23.280;2023-12-28T02:35:55;100109.19;;;5.80;nan
6194;BME280;3130;41.564;23.280;2023-12-28T02:38:24;100111.63;;;5.84;nan
6194;BME280;3130;41.564;23.280;2023-12-28T02:40:53;100112.66;;;5.77;nan
6194;BME280;3130;41.564;23.280;2023-12-28T02:43:22;100106.03;;;5.69;nan
6194;BME280;3130;41.564;23.280;2023-12-28T02:45:49;100065.22;;;5.34;nan
6194;BME280;3130;41.564;23.280;2023-12-28T02:48:17;100106.13;;;5.63;nan
6194;BME280;3130;41.564;23.280;2023-12-28T02:50:44;100101.16;;;5.58;nan
6194;BME280;3130;41.564;23.280;2023-12-28T02:53:12;100084.50;;;5.44;nan
6194;BME280;3130;41.564;23.280;2023-12-28T02:55:40;100100.41;;;5.53;nan
6194;BME280;3130;41.564;23.280;2023-12-28T02:58:09;100078.72;;;5.36;nan
6194;BME280;3130;41.564;23.280;2023-12-28T03:00:36;100101.13;;;5.60;nan
6194;BME280;3130;41.564;23.280;2023-12-28T03:03:03;100100.47;;;5.50;nan
6194;BME280;3130;41.564;23.280;2023-12-28T03:05:31;99999.44;;;4.77;nan
6194;BME280;3130;41.564;23.280;2023-12-28T03:07:58;100117.59;;;5.42;nan
6194;BME280;3130;41.564;23.280;2023-12-28T03:10:25;100109.13;;;5.42;nan
6194;BME280;3130;41.564;23.280;2023-12-28T03:12:52;100119.94;;;5.53;nan
6194;BME280;3130;41.564;23.280;2023-12-28T03:15:21;100115.72;;;5.52;nan
6194;BME280;3130;41.564;23.280;2023-12-28T03:17:48;100007.81;;;4.83;nan
6194;BME280;3130;41.564;23.280;2023-12-28T03:20:16;100117.00;;;5.30;nan
6194;BME280;3130;41.564;23.280;2023-12-28T03:22:43;100118.94;;;5.17;nan
6194;BME280;3130;41.564;23.280;2023-12-28T03:25:10;100080.31;;;5.00;nan
6194;BME280;3130;41.564;23.280;2023-12-28T03:27:37;100119.19;;;5.04;nan
6194;BME280;3130;41.564;23.280;2023-12-28T03:30:06;100112.63;;;4.93;nan
6194;BME280;3130;41.564;23.280;2023-12-28T03:32:35;100105.09;;;4.90;nan
6194;BME280;3130;41.564;23.280;2023-12-28T03:35:02;100086.72;;;4.74;nan
6194;BME280;3130;41.564;23.280;2023-12-28T03:37:30;100110.94;;;4.93;nan
6194;BME280;3130;41.564;23.280;2023-12-28T03:39:57;100014.72;;;4.30;nan
6194;BME280;3130;41.564;23.280;2023-12-28T03:42:24;100084.38;;;4.65;nan
6194;BME280;3130;41.564;23.280;2023-12-28T03:44:51;100083.78;;;4.50;nan
6194;BME280;3130;41.564;23.280;2023-12-28T03:47:18;100124.94;;;4.70;nan
6194;BME280;3130;41.564;23.280;2023-12-28T03:49:47;100115.41;;;4.82;nan
6194;BME280;3130;41.564;23.280;2023-12-28T03:52:14;99981.97;;;4.16;nan
6194;BME280;3130;41.564;23.280;2023-12-28T03:54:41;100113.84;;;4.74;nan
6194;BME280;3130;41.564;23.280;2023-12-28T03:57:09;100072.28;;;4.29;nan
6194;BME280;3130;41.564;23.280;2023-12-28T03:59:36;100122.34;;;4.71;nan
6194;BME280;3130;41.564;23.280;2023-12-28T04:02:03;100114.78;;;4.68;nan
6194;BME280;3130;41.564;23.280;2023-12-28T04:04:31;100086.47;;;4.41;nan
6194;BME280;3130;41.564;23.280;2023-12-28T04:06:59;100120.66;;;4.72;nan
6194;BME280;3130;41.564;23.280;2023-12-28T04:09:26;100123.94;;;4.77;nan
6194;BME280;3130;41.564;23.280;2023-12-28T04:11:54;100103.00;;;4.64;nan
6194;BME280;3130;41.564;23.280;2023-12-28T04:14:21;100030.22;;;4.13;nan
6194;BME280;3130;41.564;23.280;2023-12-28T04:16:48;100129.28;;;4.63;nan
6194;BME280;3130;41.564;23.280;2023-12-28T04:19:15;100130.13;;;4.62;nan
6194;BME280;3130;41.564;23.280;2023-12-28T04:21:43;100107.59;;;4.44;nan
6194;BME280;3130;41.564;23.280;2023-12-28T04:24:12;100128.28;;;4.70;nan
6194;BME280;3130;41.564;23.280;2023-12-28T04:26:39;100125.66;;;4.75;nan
6194;BME280;3130;41.564;23.280;2023-12-28T04:29:05;100109.88;;;4.58;nan
6194;BME280;3130;41.564;23.280;2023-12-28T04:31:32;100126.66;;;4.66;nan
6194;BME280;3130;41.564;23.280;2023-12-28T04:34:00;100122.50;;;4.62;nan
6194;BME280;3130;41.564;23.280;2023-12-28T04:36:27;100100.44;;;4.66;nan
6194;BME280;3130;41.564;23.280;2023-12-28T04:38:54;100029.06;;;4.34;nan
6194;BME280;3130;41.564;23.280;2023-12-28T04:41:23;100126.53;;;5.19;nan
6194;BME280;3130;41.564;23.280;2023-12-28T04:43:50;100123.78;;;5.31;nan
6194;BME280;3130;41.564;23.280;2023-12-28T04:46:17;100141.72;;;5.23;nan
6194;BME280;3130;41.564;23.280;2023-12-28T04:48:45;100005.50;;;4.26;nan
6194;BME280;3130;41.564;23.280;2023-12-28T04:51:12;100139.19;;;5.22;nan
6194;BME280;3130;41.564;23.280;2023-12-28T04:53:39;100120.81;;;5.08;nan
6194;BME280;3130;41.564;23.280;2023-12-28T04:56:07;100136.75;;;4.71;nan
6194;BME280;3130;41.564;23.280;2023-12-28T04:58:35;100144.53;;;4.62;nan
6194;BME280;3130;41.564;23.280;2023-12-28T05:01:03;100104.41;;;4.32;nan
6194;BME280;3130;41.564;23.280;2023-12-28T05:03:30;100135.34;;;4.53;nan
6194;BME280;3130;41.564;23.280;2023-12-28T05:05:58;100092.78;;;4.17;nan
6194;BME280;3130;41.564;23.280;2023-12-28T05:08:25;100129.09;;;4.22;nan
6194;BME280;3130;41.564;23.280;2023-12-28T05:10:52;100135.06;;;4.20;nan
6194;BME280;3130;41.564;23.280;2023-12-28T05:13:19;100058.06;;;3.65;nan
6194;BME280;3130;41.564;23.280;2023-12-28T05:15:48;100144.56;;;4.06;nan
6194;BME280;3130;41.564;23.280;2023-12-28T05:18:15;100146.25;;;4.05;nan
6194;BME280;3130;41.564;23.280;2023-12-28T05:20:43;100117.69;;;3.93;nan
6194;BME280;3130;41.564;23.280;2023-12-28T05:23:10;100035.66;;;3.35;nan
6194;BME280;3130;41.564;23.280;2023-12-28T05:25:37;100142.22;;;3.91;nan
6194;BME280;3130;41.564;23.280;2023-12-28T05:28:04;100145.69;;;3.86;nan
6194;BME280;3130;41.564;23.280;2023-12-28T05:30:32;100052.81;;;3.17;nan
6194;BME280;3130;41.564;23.280;2023-12-28T05:33:00;100148.38;;;3.77;nan
6194;BME280;3130;41.564;23.280;2023-12-28T05:35:28;100114.84;;;3.54;nan
6194;BME280;3130;41.564;23.280;2023-12-28T05:37:55;100144.19;;;3.73;nan
6194;BME280;3130;41.564;23.280;2023-12-28T05:40:22;100151.00;;;3.68;nan
6194;BME280;3130;41.564;23.280;2023-12-28T05:42:49;100148.53;;;3.63;nan
6194;BME280;3130;41.564;23.280;2023-12-28T05:45:16;100152.72;;;3.67;nan
6194;BME280;3130;41.564;23.280;2023-12-28T05:47:44;100140.88;;;3.68;nan
6194;BME280;3130;41.564;23.280;2023-12-28T05:50:13;100105.63;;;3.47;nan
6194;BME280;3130;41.564;23.280;2023-12-28T05:52:40;100115.66;;;3.57;nan
6194;BME280;3130;41.564;23.280;2023-12-28T05:55:07;100138.19;;;3.78;nan
6194;BME280;3130;41.564;23.280;2023-12-28T05:57:35;100135.59;;;3.83;nan
6194;BME280;3130;41.564;23.280;2023-12-28T06:00:02;100140.69;;;3.81;nan
6194;BME280;3130;41.564;23.280;2023-12-28T06:02:31;100052.53;;;3.38;nan
6194;BME280;3130;41.564;23.280;2023-12-28T06:04:59;100151.44;;;3.98;nan
6194;BME280;3130;41.564;23.280;2023-12-28T06:07:27;100127.09;;;3.87;nan
6194;BME280;3130;41.564;23.280;2023-12-28T06:09:55;100152.09;;;4.12;nan
6194;BME280;3130;41.564;23.280;2023-12-28T06:12:22;100150.00;;;4.38;nan
6194;BME280;3130;41.564;23.280;2023-12-28T06:14:49;100156.00;;;4.32;nan
6194;BME280;3130;41.564;23.280;2023-12-28T06:17:17;100139.81;;;4.39;nan
6194;BME280;3130;41.564;23.280;2023-12-28T06:19:45;100162.38;;;4.57;nan
6194;BME280;3130;41.564;23.280;2023-12-28T06:22:12;100163.84;;;4.72;nan
6194;BME280;3130;41.564;23.280;2023-12-28T06:24:41;100167.06;;;4.80;nan
6194;BME280;3130;41.564;23.280;2023-12-28T06:27:09;100043.88;;;4.08;nan
6194;BME280;3130;41.564;23.280;2023-12-28T06:29:37;100109.50;;;4.30;nan
6194;BME280;3130;41.564;23.280;2023-12-28T06:32:06;100125.59;;;4.29;nan
6194;BME280;3130;41.564;23.280;2023-12-28T06:34:33;100176.50;;;4.73;nan
6194;BME280;3130;41.564;23.280;2023-12-28T06:37:18;100160.63;;;4.61;nan
6194;BME280;3130;41.564;23.280;2023-12-28T06:39:46;100180.69;;;4.77;nan
6194;BME280;3130;41.564;23.280;2023-12-28T06:42:14;100179.22;;;4.63;nan
6194;BME280;3130;41.564;23.280;2023-12-28T06:44:42;100039.22;;;3.80;nan
6194;BME280;3130;41.564;23.280;2023-12-28T06:47:09;100180.63;;;4.80;nan
6194;BME280;3130;41.564;23.280;2023-12-28T06:49:36;100171.44;;;4.73;nan
6194;BME280;3130;41.564;23.280;2023-12-28T06:52:04;100180.47;;;4.89;nan
6194;BME280;3130;41.564;23.280;2023-12-28T06:54:31;100177.97;;;4.86;nan
6194;BME280;3130;41.564;23.280;2023-12-28T06:56:59;100089.91;;;4.38;nan
6194;BME280;3130;41.564;23.280;2023-12-28T06:59:27;100183.59;;;5.03;nan
6194;BME280;3130;41.564;23.280;2023-12-28T07:01:54;100186.63;;;5.23;nan
6194;BME280;3130;41.564;23.280;2023-12-28T07:04:22;100178.81;;;5.33;nan
6194;BME280;3130;41.564;23.280;2023-12-28T07:06:51;100186.84;;;5.55;nan
6194;BME280;3130;41.564;23.280;2023-12-28T07:09:18;100183.00;;;5.80;nan
6194;BME280;3130;41.564;23.280;2023-12-28T07:11:45;100171.50;;;6.00;nan
6194;BME280;3130;41.564;23.280;2023-12-28T07:14:14;99989.94;;;4.88;nan
6194;BME280;3130;41.564;23.280;2023-12-28T07:16:41;100077.63;;;5.49;nan
6194;BME280;3130;41.564;23.280;2023-12-28T07:19:08;100162.59;;;6.19;nan
6194;BME280;3130;41.564;23.280;2023-12-28T07:21:35;100184.72;;;6.53;nan
6194;BME280;3130;41.564;23.280;2023-12-28T07:24:03;100173.22;;;6.72;nan
6194;BME280;3130;41.564;23.280;2023-12-28T07:26:30;100155.88;;;6.86;nan
6194;BME280;3130;41.564;23.280;2023-12-28T07:28:58;100168.47;;;7.24;nan
6194;BME280;3130;41.564;23.280;2023-12-28T07:31:27;100176.97;;;7.84;nan
6194;BME280;3130;41.564;23.280;2023-12-28T07:33:57;100143.88;;;9.36;nan
6194;BME280;3130;41.564;23.280;2023-12-28T07:36:24;100196.72;;;11.52;nan
6194;BME280;3130;41.564;23.280;2023-12-28T07:38:51;100203.69;;;13.13;nan
6194;BME280;3130;41.564;23.280;2023-12-28T07:41:19;100196.84;;;14.26;nan
6194;BME280;3130;41.564;23.280;2023-12-28T07:43:46;100206.16;;;14.59;nan
6194;BME280;3130;41.564;23.280;2023-12-28T07:46:14;100216.88;;;15.12;nan
6194;BME280;3130;41.564;23.280;2023-12-28T07:48:43;100213.41;;;15.70;nan
6194;BME280;3130;41.564;23.280;2023-12-28T07:51:13;100215.34;;;15.67;nan
6194;BME280;3130;41.564;23.280;2023-12-28T07:53:43;100222.34;;;15.79;nan
6194;BME280;3130;41.564;23.280;2023-12-28T07:56:15;100169.41;;;15.28;nan
6194;BME280;3130;41.564;23.280;2023-12-28T07:58:44;100138.88;;;14.62;nan
6194;BME280;3130;41.564;23.280;2023-12-28T08:01:11;100221.59;;;15.49;nan
6194;BME280;3130;41.564;23.280;2023-12-28T08:03:38;100230.28;;;16.31;nan
6194;BME280;3130;41.564;23.280;2023-12-28T08:06:07;100231.78;;;17.27;nan
6194;BME280;3130;41.564;23.280;2023-12-28T08:08:38;100218.41;;;18.32;nan
6194;BME280;3130;41.564;23.280;2023-12-28T08:11:06;100229.53;;;19.39;nan
6194;BME280;3130;41.564;23.280;2023-12-28T08:13:33;100225.81;;;19.87;nan
6194;BME280;3130;41.564;23.280;2023-12-28T08:16:00;100228.16;;;20.33;nan
6194;BME280;3130;41.564;23.280;2023-12-28T08:18:28;100213.66;;;21.05;nan
6194;BME280;3130;41.564;23.280;2023-12-28T08:20:56;100225.50;;;21.49;nan
6194;BME280;3130;41.564;23.280;2023-12-28T08:23:24;100127.69;;;21.53;nan
6194;BME280;3130;41.564;23.280;2023-12-28T08:25:52;100221.44;;;22.46;nan
6194;BME280;3130;41.564;23.280;2023-12-28T08:28:19;100224.97;;;23.22;nan
6194;BME280;3130;41.564;23.280;2023-12-28T08:30:47;100223.56;;;23.37;nan
6194;BME280;3130;41.564;23.280;2023-12-28T08:33:14;100223.84;;;23.25;nan
6194;BME280;3130;41.564;23.280;2023-12-28T08:35:42;100221.47;;;22.93;nan
6194;BME280;3130;41.564;23.280;2023-12-28T08:38:09;100150.19;;;20.52;nan
6194;BME280;3130;41.564;23.280;2023-12-28T08:40:38;100095.53;;;17.35;nan
6194;BME280;3130;41.564;23.280;2023-12-28T08:43:05;100203.69;;;16.02;nan
6194;BME280;3130;41.564;23.280;2023-12-28T08:45:33;100209.97;;;14.52;nan
6194;BME280;3130;41.564;23.280;2023-12-28T08:48:01;100208.03;;;13.79;nan
6194;BME280;3130;41.564;23.280;2023-12-28T08:50:28;100103.03;;;12.67;nan
6194;BME280;3130;41.564;23.280;2023-12-28T08:52:56;100200.59;;;12.90;nan
6194;BME280;3130;41.564;23.280;2023-12-28T08:55:23;100207.47;;;12.54;nan
6194;BME280;3130;41.564;23.280;2023-12-28T08:57:52;100202.41;;;12.34;nan
6194;BME280;3130;41.564;23.280;2023-12-28T09:00:20;100201.31;;;12.75;nan
6194;BME280;3130;41.564;23.280;2023-12-28T09:02:47;100192.00;;;13.72;nan
6194;BME280;3130;41.564;23.280;2023-12-28T09:05:14;100197.03;;;13.26;nan
6194;BME280;3130;41.564;23.280;2023-12-28T09:07:42;100192.78;;;12.56;nan
6194;BME280;3130;41.564;23.280;2023-12-28T09:10:10;100184.59;;;12.12;nan
6194;BME280;3130;41.564;23.280;2023-12-28T09:12:37;100159.09;;;11.71;nan
6194;BME280;3130;41.564;23.280;2023-12-28T09:15:07;100126.25;;;11.39;nan
6194;BME280;3130;41.564;23.280;2023-12-28T09:17:34;100171.25;;;11.48;nan
6194;BME280;3130;41.564;23.280;2023-12-28T09:20:02;100163.16;;;11.37;nan
6194;BME280;3130;41.564;23.280;2023-12-28T09:22:32;100148.41;;;11.22;nan
6194;BME280;3130;41.564;23.280;2023-12-28T09:24:59;100150.31;;;11.37;nan
6194;BME280;3130;41.564;23.280;2023-12-28T09:27:26;100122.94;;;11.17;nan
6194;BME280;3130;41.564;23.280;2023-12-28T09:29:53;100117.94;;;11.14;nan
6194;BME280;3130;41.564;23.280;2023-12-28T09:32:22;100098.50;;;11.09;nan
6194;BME280;3130;41.564;23.280;2023-12-28T09:34:49;100005.06;;;10.55;nan
6194;BME280;3130;41.564;23.280;2023-12-28T09:37:17;100123.94;;;11.33;nan
6194;BME280;3130;41.564;23.280;2023-12-28T09:39:44;100107.56;;;11.36;nan
6194;BME280;3130;41.564;23.280;2023-12-28T09:42:17;100112.16;;;11.48;nan
6194;BME280;3130;41.564;23.280;2023-12-28T09:44:46;100090.34;;;11.38;nan
6194;BME280;3130;41.564;23.280;2023-12-28T09:47:13;100074.59;;;11.27;nan
6194;BME280;3130;41.564;23.280;2023-12-28T09:49:43;100090.72;;;11.49;nan
6194;BME280;3130;41.564;23.280;2023-12-28T09:52:11;100083.75;;;11.51;nan
6194;BME280;3130;41.564;23.280;2023-12-28T09:54:38;100102.69;;;11.68;nan
6194;BME280;3130;41.564;23.280;2023-12-28T09:57:05;100087.06;;;11.73;nan
6194;BME280;3130;41.564;23.280;2023-12-28T09:59:33;100083.78;;;11.88;nan
6194;BME280;3130;41.564;23.280;2023-12-28T10:02:01;100067.41;;;11.72;nan
6194;BME280;3130;41.564;23.280;2023-12-28T10:04:29;100078.13;;;11.98;nan
6194;BME280;3130;41.564;23.280;2023-12-28T10:06:58;100065.41;;;11.95;nan
6194;BME280;3130;41.564;23.280;2023-12-28T10:09:25;100045.69;;;11.96;nan
6194;BME280;3130;41.564;23.280;2023-12-28T10:11:53;99989.88;;;11.81;nan
6194;BME280;3130;41.564;23.280;2023-12-28T10:14:21;100036.63;;;12.05;nan
6194;BME280;3130;41.564;23.280;2023-12-28T10:16:49;99934.94;;;11.48;nan
6194;BME280;3130;41.564;23.280;2023-12-28T10:19:22;100042.63;;;12.23;nan
6194;BME280;3130;41.564;23.280;2023-12-28T10:21:50;100043.66;;;12.37;nan
6194;BME280;3130;41.564;23.280;2023-12-28T10:24:20;100025.94;;;12.48;nan
6194;BME280;3130;41.564;23.280;2023-12-28T10:26:48;100035.06;;;12.71;nan
6194;BME280;3130;41.564;23.280;2023-12-28T10:29:16;99985.88;;;12.60;nan
6194;BME280;3130;41.564;23.280;2023-12-28T10:31:44;100013.31;;;12.93;nan
6194;BME280;3130;41.564;23.280;2023-12-28T10:34:15;99995.59;;;13.04;nan
6194;BME280;3130;41.564;23.280;2023-12-28T10:36:42;100005.72;;;13.07;nan
6194;BME280;3130;41.564;23.280;2023-12-28T10:39:10;99997.31;;;13.04;nan
6194;BME280;3130;41.564;23.280;2023-12-28T10:41:41;100010.63;;;13.11;nan
6194;BME280;3130;41.564;23.280;2023-12-28T10:44:12;100002.31;;;13.07;nan
6194;BME280;3130;41.564;23.280;2023-12-28T10:46:44;99954.19;;;12.92;nan
6194;BME280;3130;41.564;23.280;2023-12-28T10:49:16;99996.41;;;13.35;nan
6194;BME280;3130;41.564;23.280;2023-12-28T10:51:51;99994.69;;;13.36;nan
6194;BME280;3130;41.564;23.280;2023-12-28T10:54:32;99979.41;;;13.33;nan
6194;BME280;3130;41.564;23.280;2023-12-28T10:57:09;99975.31;;;13.29;nan
6194;BME280;3130;41.564;23.280;2023-12-28T10:59:44;99982.31;;;13.42;nan
6194;BME280;3130;41.564;23.280;2023-12-28T11:02:16;99978.41;;;13.51;nan
6194;BME280;3130;41.564;23.280;2023-12-28T11:04:49;99977.00;;;13.61;nan
6194;BME280;3130;41.564;23.280;2023-12-28T11:07:18;99948.22;;;13.53;nan
6194;BME280;3130;41.564;23.280;2023-12-28T11:09:46;99951.22;;;13.61;nan
6194;BME280;3130;41.564;23.280;2023-12-28T11:12:16;99873.38;;;13.25;nan
6194;BME280;3130;41.564;23.280;2023-12-28T11:14:45;99909.56;;;13.53;nan
6194;BME280;3130;41.564;23.280;2023-12-28T11:17:16;99938.28;;;13.76;nan
6194;BME280;3130;41.564;23.280;2023-12-28T11:19:44;99939.66;;;13.97;nan
6194;BME280;3130;41.564;23.280;2023-12-28T11:22:15;99948.25;;;14.11;nan
6194;BME280;3130;41.564;23.280;2023-12-28T11:24:42;99946.94;;;14.05;nan
6194;BME280;3130;41.564;23.280;2023-12-28T11:27:10;99878.38;;;13.87;nan
6194;BME280;3130;41.564;23.280;2023-12-28T11:29:41;99926.22;;;14.35;nan
6194;BME280;3130;41.564;23.280;2023-12-28T11:32:10;99922.53;;;14.39;nan
6194;BME280;3130;41.564;23.280;2023-12-28T11:34:37;99940.78;;;14.50;nan
6194;BME280;3130;41.564;23.280;2023-12-28T11:37:07;99905.03;;;14.44;nan
6194;BME280;3130;41.564;23.280;2023-12-28T11:39:36;99928.25;;;14.72;nan
6194;BME280;3130;41.564;23.280;2023-12-28T11:42:05;99898.84;;;14.61;nan
6194;BME280;3130;41.564;23.280;2023-12-28T11:44:39;99920.03;;;14.94;nan
6194;BME280;3130;41.564;23.280;2023-12-28T11:47:14;99920.97;;;14.93;nan
6194;BME280;3130;41.564;23.280;2023-12-28T11:49:42;99922.25;;;15.00;nan
6194;BME280;3130;41.564;23.280;2023-12-28T11:52:22;99867.41;;;14.82;nan
6194;BME280;3130;41.564;23.280;2023-12-28T11:54:50;99892.41;;;15.08;nan
6194;BME280;3130;41.564;23.280;2023-12-28T11:57:17;99765.84;;;14.41;nan
6194;BME280;3130;41.564;23.280;2023-12-28T11:59:47;99909.63;;;15.35;nan
6194;BME280;3130;41.564;23.280;2023-12-28T12:02:15;99899.09;;;15.38;nan
6194;BME280;3130;41.564;23.280;2023-12-28T12:04:43;99874.88;;;15.27;nan
6194;BME280;3130;41.564;23.280;2023-12-28T12:07:10;99871.59;;;15.37;nan
6194;BME280;3130;41.564;23.280;2023-12-28T12:09:38;99868.47;;;15.59;nan
6194;BME280;3130;41.564;23.280;2023-12-28T12:12:07;99874.91;;;15.66;nan
6194;BME280;3130;41.564;23.280;2023-12-28T12:14:34;99857.72;;;15.65;nan
6194;BME280;3130;41.564;23.280;2023-12-28T12:17:04;99866.75;;;15.84;nan
6194;BME280;3130;41.564;23.280;2023-12-28T12:19:31;99858.75;;;15.75;nan
6194;BME280;3130;41.564;23.280;2023-12-28T12:21:59;99858.97;;;15.84;nan
6194;BME280;3130;41.564;23.280;2023-12-28T12:24:26;99852.06;;;16.22;nan
6194;BME280;3130;41.564;23.280;2023-12-28T12:26:54;99865.34;;;16.30;nan
6194;BME280;3130;41.564;23.280;2023-12-28T12:29:21;99850.00;;;16.14;nan
6194;BME280;3130;41.564;23.280;2023-12-28T12:31:49;99858.19;;;16.21;nan
6194;BME280;3130;41.564;23.280;2023-12-28T12:34:18;99865.34;;;16.17;nan
6194;BME280;3130;41.564;23.280;2023-12-28T12:36:45;99856.44;;;16.09;nan
6194;BME280;3130;41.564;23.280;2023-12-28T12:39:13;99858.59;;;15.90;nan
6194;BME280;3130;41.564;23.280;2023-12-28T12:41:40;99817.66;;;15.58;nan
6194;BME280;3130;41.564;23.280;2023-12-28T12:44:08;99847.28;;;15.79;nan
6194;BME280;3130;41.564;23.280;2023-12-28T12:46:36;99854.03;;;15.94;nan
6194;BME280;3130;41.564;23.280;2023-12-28T12:49:05;99861.19;;;16.03;nan
6194;BME280;3130;41.564;23.280;2023-12-28T12:51:34;99844.41;;;15.96;nan
6194;BME280;3130;41.564;23.280;2023-12-28T12:54:02;99807.47;;;15.94;nan
6194;BME280;3130;41.564;23.280;2023-12-28T12:56:30;99847.53;;;16.13;nan
6194;BME280;3130;41.564;23.280;2023-12-28T12:58:58;99844.84;;;16.27;nan
6194;BME280;3130;41.564;23.280;2023-12-28T13:01:25;99744.56;;;15.68;nan
6194;BME280;3130;41.564;23.280;2023-12-28T13:03:52;99775.41;;;15.96;nan
6194;BME280;3130;41.564;23.280;2023-12-28T13:06:19;99842.06;;;16.30;nan
6194;BME280;3130;41.564;23.280;2023-12-28T13:08:50;99709.06;;;15.58;nan
6194;BME280;3130;41.564;23.280;2023-12-28T13:11:17;99834.72;;;16.36;nan
6194;BME280;3130;41.564;23.280;2023-12-28T13:13:50;99765.34;;;16.04;nan
6194;BME280;3130;41.564;23.280;2023-12-28T13:16:17;99844.34;;;16.47;nan
6194;BME280;3130;41.564;23.280;2023-12-28T13:18:45;99790.09;;;16.33;nan
6194;BME280;3130;41.564;23.280;2023-12-28T13:21:12;99830.88;;;16.42;nan
6194;BME280;3130;41.564;23.280;2023-12-28T13:23:40;99819.03;;;16.25;nan
6194;BME280;3130;41.564;23.280;2023-12-28T13:26:09;99821.97;;;16.33;nan
6194;BME280;3130;41.564;23.280;2023-12-28T13:28:37;99827.47;;;16.41;nan
6194;BME280;3130;41.564;23.280;2023-12-28T13:31:04;99696.78;;;15.49;nan
6194;BME280;3130;41.564;23.280;2023-12-28T13:33:32;99819.47;;;16.19;nan